createdAt,value
2022-12-13T00:00:31.924Z,97174.63
2022-12-13T00:02:59.062Z,97170.84
2022-12-13T00:05:26.191Z,97169.78
2022-12-13T00:07:53.361Z,97171.91
2022-12-13T00:10:21.900Z,97166.25
2022-12-13T00:12:49.092Z,97174.28
2022-12-13T00:15:16.614Z,97162.78
2022-12-13T00:17:43.866Z,97163.56
2022-12-13T00:20:11.709Z,97159.81
2022-12-13T00:22:39.187Z,97167.28
2022-12-13T00:25:06.958Z,97170.22
2022-12-13T00:27:35.435Z,97162.19
2022-12-13T00:30:03.865Z,97163.03
2022-12-13T00:32:31.036Z,97167.78
2022-12-13T00:34:58.145Z,97165.91
2022-12-13T00:37:25.250Z,97164.31
2022-12-13T00:39:52.517Z,97165.91
2022-12-13T00:42:19.629Z,97167.78
2022-12-13T00:44:48.111Z,97159.75
2022-12-13T00:47:15.267Z,97164.31
2022-12-13T00:49:42.371Z,97162.19
2022-12-13T00:52:09.472Z,97157.94
2022-12-13T00:54:36.586Z,97154.19
2022-12-13T00:57:03.785Z,97157.13
2022-12-13T00:59:30.891Z,97155.50
2022-12-13T01:01:59.404Z,97150.97
2022-12-13T01:04:26.523Z,97156.06
2022-12-13T01:06:53.640Z,97156.59
2022-12-13T01:09:22.551Z,97148.81
2022-12-13T01:11:50.625Z,97146.16
2022-12-13T01:14:18.770Z,97149.88
2022-12-13T01:16:46.101Z,97141.84
2022-12-13T01:19:14.610Z,97145.84
2022-12-13T01:21:41.751Z,97146.66
2022-12-13T01:24:09.111Z,97142.63
2022-12-13T01:26:36.222Z,97142.88
2022-12-13T01:29:03.333Z,97142.88
2022-12-13T01:31:30.478Z,97130.00
2022-12-13T01:33:57.591Z,97140.44
2022-12-13T01:36:27.704Z,97130.81
2022-12-13T01:38:58.672Z,97136.19
2022-12-13T01:41:27.856Z,97130.91
2022-12-13T01:43:57.810Z,97136.81
2022-12-13T01:46:24.957Z,97139.25
2022-12-13T01:48:57.175Z,97133.88
2022-12-13T01:51:29.604Z,97139.22
2022-12-13T01:53:59.811Z,97134.16
2022-12-13T01:56:33.648Z,97127.53
2022-12-13T01:59:02.223Z,97129.19
2022-12-13T02:01:29.718Z,97122.78
2022-12-13T02:03:56.865Z,97113.13
2022-12-13T02:06:32.655Z,97119.00
2022-12-13T02:09:00.757Z,97126.50
2022-12-13T02:11:28.660Z,97107.72
2022-12-13T02:13:55.904Z,97112.56
2022-12-13T02:16:37.916Z,97122.47
2022-12-13T02:19:39.102Z,97121.22
2022-12-13T02:22:19.980Z,97105.63
2022-12-13T02:25:13.952Z,97110.75
2022-12-13T02:28:00.762Z,97114.31
2022-12-13T02:30:37.159Z,97112.91
2022-12-13T02:33:21.729Z,97103.22
2022-12-13T02:35:56.426Z,97108.78
2022-12-13T02:38:29.540Z,97106.91
2022-12-13T02:41:07.564Z,97073.72
2022-12-13T02:43:45.503Z,97097.28
2022-12-13T02:46:17.247Z,97100.53
2022-12-13T02:48:47.346Z,97101.06
2022-12-13T02:51:16.375Z,97106.97
2022-12-13T02:53:44.942Z,97097.06
2022-12-13T02:56:12.220Z,97100.03
2022-12-13T02:58:45.470Z,97096.81
2022-12-13T03:01:44.916Z,97098.97
2022-12-13T03:04:26.271Z,97094.16
2022-12-13T03:07:06.402Z,97078.38
2022-12-13T03:09:46.713Z,97081.88
2022-12-13T03:12:29.969Z,97077.31
2022-12-13T03:15:03.282Z,97086.41
2022-12-13T03:17:40.410Z,97089.06
2022-12-13T03:20:12.748Z,97075.69
2022-12-13T03:22:50.590Z,97085.34
2022-12-13T03:25:30.774Z,97087.75
2022-12-13T03:28:01.217Z,97071.94
2022-12-13T03:30:30.422Z,97075.69
2022-12-13T03:32:59.498Z,97084.25
2022-12-13T03:35:34.429Z,97085.56
2022-12-13T03:38:02.319Z,97085.03
2022-12-13T03:40:30.541Z,97075.66
2022-12-13T03:42:57.803Z,97070.03
2022-12-13T03:45:24.951Z,97068.19
2022-12-13T03:47:52.106Z,97062.03
2022-12-13T03:50:26.616Z,97060.91
2022-12-13T03:52:58.439Z,97052.06
2022-12-13T03:55:25.612Z,97046.63
2022-12-13T03:57:52.845Z,97050.69
2022-12-13T04:00:20.230Z,97049.09
2022-12-13T04:02:47.404Z,97054.19
2022-12-13T04:05:14.960Z,97052.34
2022-12-13T04:07:48.218Z,97052.38
2022-12-13T04:10:25.735Z,97053.69
2022-12-13T04:12:54.527Z,97051.56
2022-12-13T04:15:27.794Z,97045.16
2022-12-13T04:17:54.920Z,97049.19
2022-12-13T04:20:22.052Z,97045.94
2022-12-13T04:22:50.651Z,97045.16
2022-12-13T04:25:17.926Z,97037.63
2022-12-13T04:27:45.687Z,97036.84
2022-12-13T04:30:13.059Z,97044.59
2022-12-13T04:32:40.493Z,97036.84
2022-12-13T04:35:08.027Z,97045.13
2022-12-13T04:37:35.139Z,97038.44
2022-12-13T04:40:04.261Z,97041.66
2022-12-13T04:42:31.828Z,97037.41
2022-12-13T04:44:58.931Z,97046.50
2022-12-13T04:47:26.046Z,97041.13
2022-12-13T04:49:53.155Z,97041.16
2022-12-13T04:52:22.435Z,97038.19
2022-12-13T04:54:55.882Z,97036.84
2022-12-13T04:57:24.751Z,97036.31
2022-12-13T04:59:51.961Z,97028.28
2022-12-13T05:02:23.651Z,97037.13
2022-12-13T05:04:54.224Z,97034.94
2022-12-13T05:07:21.772Z,97020.59
2022-12-13T05:09:48.913Z,97027.69
2022-12-13T05:12:22.270Z,97029.16
2022-12-13T05:14:52.653Z,97025.63
2022-12-13T05:17:20.032Z,97022.13
2022-12-13T05:19:47.160Z,97021.25
2022-12-13T05:22:19.392Z,97014.06
2022-12-13T05:24:47.923Z,97011.72
2022-12-13T05:27:23.759Z,97014.97
2022-12-13T05:30:03.308Z,97014.53
2022-12-13T05:32:33.095Z,97026.13
2022-12-13T05:35:00.217Z,97011.41
2022-12-13T05:37:27.349Z,97018.94
2022-12-13T05:39:54.471Z,97024.56
2022-12-13T05:42:21.603Z,97025.91
2022-12-13T05:44:48.702Z,97022.75
2022-12-13T05:47:17.184Z,97021.13
2022-12-13T05:49:44.431Z,97032.97
2022-12-13T05:52:17.109Z,97025.19
2022-12-13T05:54:44.238Z,97023.88
2022-12-13T05:57:11.362Z,97028.69
2022-12-13T05:59:38.530Z,97032.22
2022-12-13T06:02:05.856Z,97031.16
2022-12-13T06:04:34.472Z,97035.16
2022-12-13T06:07:01.595Z,97025.50
2022-12-13T06:09:28.728Z,97027.13
2022-12-13T06:12:01.249Z,97023.66
2022-12-13T06:14:28.624Z,97021.81
2022-12-13T06:16:55.990Z,97018.63
2022-12-13T06:19:23.881Z,97018.91
2022-12-13T06:21:54.716Z,97018.34
2022-12-13T06:24:31.887Z,97015.41
2022-12-13T06:26:59.063Z,97017.56
2022-12-13T06:29:26.285Z,97016.75
2022-12-13T06:32:02.429Z,97030.44
2022-12-13T06:34:32.370Z,97023.47
2022-12-13T06:37:00.825Z,97029.38
2022-12-13T06:39:38.923Z,97022.88
2022-12-13T06:42:13.806Z,97025.06
2022-12-13T06:44:48.882Z,97025.06
2022-12-13T06:47:32.163Z,97026.41
2022-12-13T06:50:05.496Z,97028.81
2022-12-13T06:52:33.408Z,97026.13
2022-12-13T06:55:00.550Z,97029.63
2022-12-13T06:57:29.002Z,97031.78
2022-12-13T06:59:56.139Z,97024.00
2022-12-13T07:02:25.509Z,97032.84
2022-12-13T07:04:54.798Z,97033.38
2022-12-13T07:07:22.889Z,97042.19
2022-12-13T07:09:49.997Z,97032.03
2022-12-13T07:12:17.161Z,97027.47
2022-12-13T07:14:45.679Z,97023.72
2022-12-13T07:17:12.848Z,97040.34
2022-12-13T07:20:01.088Z,97034.44
2022-12-13T07:22:28.492Z,97041.16
2022-12-13T07:24:55.604Z,97041.41
2022-12-13T07:27:22.742Z,97040.31
2022-12-13T07:29:51.187Z,97038.72
2022-12-13T07:32:18.301Z,97026.94
2022-12-13T07:34:45.464Z,97035.25
2022-12-13T07:37:29.896Z,97033.91
2022-12-13T07:40:03.235Z,97022.66
2022-12-13T07:42:31.468Z,97031.25
2022-12-13T07:44:59.975Z,97031.50
2022-12-13T07:47:29.251Z,97036.03
2022-12-13T07:49:56.568Z,97043.00
2022-12-13T07:52:23.708Z,97048.88
2022-12-13T07:54:50.869Z,97029.63
2022-12-13T07:57:17.979Z,97043.28
2022-12-13T07:59:45.291Z,97045.69
2022-12-13T08:02:13.975Z,97047.28
2022-12-13T08:04:42.466Z,97043.00
2022-12-13T08:07:10.518Z,97047.53
2022-12-13T08:09:38.100Z,97039.25
2022-12-13T08:12:05.629Z,97047.28
2022-12-13T08:14:32.773Z,97046.19
2022-12-13T08:16:59.870Z,97049.41
2022-12-13T08:19:28.315Z,97057.16
2022-12-13T08:21:57.130Z,97049.41
2022-12-13T08:24:26.879Z,97049.94
2022-12-13T08:26:54.178Z,97045.94
2022-12-13T08:29:23.537Z,97048.31
2022-12-13T08:32:01.979Z,97049.41
2022-12-13T08:34:30.687Z,97051.28
2022-12-13T08:37:01.795Z,97060.41
2022-12-13T08:39:30.620Z,97053.44
2022-12-13T08:42:16.834Z,97061.19
2022-12-13T08:44:46.570Z,97056.91
2022-12-13T08:47:22.991Z,97061.47
2022-12-13T08:49:54.527Z,97066.53
2022-12-13T08:52:22.539Z,97063.56
2022-12-13T08:54:49.839Z,97066.81
2022-12-13T08:57:17.125Z,97071.09
2022-12-13T08:59:44.235Z,97076.69
2022-12-13T09:02:13.211Z,97080.72
2022-12-13T09:04:40.455Z,97076.69
2022-12-13T09:07:08.982Z,97075.06
2022-12-13T09:09:37.228Z,97074.25
2022-12-13T09:12:10.325Z,97083.38
2022-12-13T09:14:38.438Z,97078.03
2022-12-13T09:17:14.835Z,97068.94
2022-12-13T09:19:51.898Z,97053.88
2022-12-13T09:22:33.813Z,97069.19
2022-12-13T09:25:02.546Z,97073.75
2022-12-13T09:27:30.325Z,97079.13
2022-12-13T09:29:57.516Z,97066.53
2022-12-13T09:32:24.723Z,97068.16
2022-12-13T09:34:52.112Z,97057.72
2022-12-13T09:37:22.835Z,97055.56
2022-12-13T09:39:55.117Z,97056.09
2022-12-13T09:42:30.913Z,97052.63
2022-12-13T09:45:03.331Z,97051.28
2022-12-13T09:47:35.404Z,97050.22
2022-12-13T09:50:08.146Z,97059.03
2022-12-13T09:52:44.876Z,97047.50
2022-12-13T09:55:20.628Z,97041.38
2022-12-13T09:57:48.059Z,97049.44
2022-12-13T10:00:18.245Z,97045.13
2022-12-13T10:02:47.711Z,97040.03
2022-12-13T10:05:35.749Z,97029.09
2022-12-13T10:08:11.307Z,97033.34
2022-12-13T10:10:40.177Z,97033.34
2022-12-13T10:13:17.139Z,97023.44
2022-12-13T10:15:50.589Z,97010.88
2022-12-13T10:18:25.785Z,97009.53
2022-12-13T10:20:53.596Z,97007.94
2022-12-13T10:23:38.624Z,97011.97
2022-12-13T10:26:14.804Z,97005.00
2022-12-13T10:29:02.727Z,96978.22
2022-12-13T10:31:29.993Z,96992.41
2022-12-13T10:33:58.100Z,96988.09
2022-12-13T10:36:34.946Z,96992.63
2022-12-13T10:39:02.744Z,96981.41
2022-12-13T10:41:34.887Z,96959.16
2022-12-13T10:44:16.140Z,96987.56
2022-12-13T10:46:49.805Z,96967.72
2022-12-13T10:49:19.643Z,96978.44
2022-12-13T10:51:47.193Z,96989.44
2022-12-13T10:54:19.548Z,96985.94
2022-12-13T10:56:51.172Z,96990.50
2022-12-13T10:59:26.231Z,96990.78
2022-12-13T11:01:54.151Z,96965.91
2022-12-13T11:04:27.837Z,96980.31
2022-12-13T11:06:56.152Z,96979.53
2022-12-13T11:09:27.372Z,96973.91
2022-12-13T11:11:58.991Z,96973.63
2022-12-13T11:14:32.176Z,96965.63
2022-12-13T11:17:07.823Z,96970.97
2022-12-13T11:19:39.795Z,96966.72
2022-12-13T11:22:08.912Z,96961.63
2022-12-13T11:24:37.878Z,96964.56
2022-12-13T11:27:22.995Z,96970.19
2022-12-13T11:30:08.967Z,96958.41
2022-12-13T11:32:58.732Z,96953.59
2022-12-13T11:35:32.296Z,96961.63
2022-12-13T11:38:12.102Z,96942.59
2022-12-13T11:40:44.409Z,96932.19
2022-12-13T11:43:23.762Z,96941.28
2022-12-13T11:45:55.037Z,96954.41
2022-12-13T11:48:29.304Z,96950.38
2022-12-13T11:50:56.400Z,96945.56
2022-12-13T11:53:30.483Z,96944.22
2022-12-13T11:56:04.819Z,96942.91
2022-12-13T11:59:01.906Z,96946.91
2022-12-13T12:01:29.386Z,96926.03
2022-12-13T12:04:01.886Z,96940.50
2022-12-13T12:06:35.152Z,96940.22
2022-12-13T12:09:06.018Z,96933.00
2022-12-13T12:11:36.226Z,96923.34
2022-12-13T12:14:10.326Z,96925.50
2022-12-13T12:16:42.610Z,96925.75
2022-12-13T12:19:14.879Z,96916.66
2022-12-13T12:24:56.985Z,96926.56
2022-12-13T12:27:33.465Z,96914.78
2022-12-13T12:30:23.298Z,96915.06
2022-12-13T12:33:03.844Z,96906.50
2022-12-13T12:35:51.922Z,96911.84
2022-12-13T12:38:42.638Z,96911.59
2022-12-13T12:41:23.196Z,96912.09
2022-12-13T12:43:57.239Z,96907.31
2022-12-13T12:47:08.563Z,96908.38
2022-12-13T12:50:00.196Z,96908.09
2022-12-13T12:52:36.776Z,96901.13
2022-12-13T12:55:11.917Z,96897.41
2022-12-13T12:57:53.568Z,96896.34
2022-12-13T13:00:22.397Z,96888.31
2022-12-13T13:03:01.905Z,96908.13
2022-12-13T13:05:35.311Z,96899.53
2022-12-13T13:08:10.339Z,96901.13
2022-12-13T13:10:38.136Z,96901.66
2022-12-13T13:13:32.917Z,96891.53
2022-12-13T13:15:57.031Z,96895.53
2022-12-13T13:18:52.930Z,96912.09
2022-12-13T13:21:42.336Z,96910.78
2022-12-13T13:24:18.990Z,96910.53
2022-12-13T13:26:48.366Z,96913.47
2022-12-13T13:29:27.194Z,96918.03
2022-12-13T13:32:01.450Z,96913.44
2022-12-13T13:34:32.627Z,96919.88
2022-12-13T13:37:00.600Z,96923.88
2022-12-13T13:39:54.012Z,96924.97
2022-12-13T13:42:23.376Z,96933.28
2022-12-13T13:44:56.531Z,96929.25
2022-12-13T13:47:37.113Z,96930.31
2022-12-13T13:50:34.808Z,96926.84
2022-12-13T13:53:31.903Z,96918.00
2022-12-13T13:56:12.903Z,96927.63
2022-12-13T13:59:18.549Z,96928.44
2022-12-13T14:02:31.891Z,96917.75
2022-12-13T14:05:42.155Z,96919.34
2022-12-13T14:08:28.776Z,96920.69
2022-12-13T14:11:17.414Z,96926.56
2022-12-13T14:14:21.839Z,96924.97
2022-12-13T14:17:26.043Z,96930.34
2022-12-13T14:20:24.838Z,96920.97
2022-12-13T14:22:59.963Z,96928.69
2022-12-13T14:25:52.262Z,96927.13
2022-12-13T14:28:42.726Z,96922.56
2022-12-13T14:31:20.092Z,96903.56
2022-12-13T14:33:51.078Z,96918.81
2022-12-13T14:36:25.702Z,96913.97
2022-12-13T14:39:01.052Z,96911.84
2022-12-13T14:41:28.215Z,96910.53
2022-12-13T14:43:55.519Z,96908.63
2022-12-13T14:46:22.870Z,96907.00
2022-12-13T14:48:51.843Z,96902.75
2022-12-13T14:51:32.246Z,96903.53
2022-12-13T14:54:02.373Z,96909.16
2022-12-13T14:56:29.779Z,96908.34
2022-12-13T14:58:58.827Z,96910.22
2022-12-13T15:01:29.841Z,96882.94
2022-12-13T15:04:19.416Z,96896.03
2022-12-13T15:06:49.198Z,96894.19
2022-12-13T15:09:17.764Z,96888.53
2022-12-13T15:11:45.879Z,96881.03
2022-12-13T15:14:16.169Z,96888.59
2022-12-13T15:16:47.962Z,96884.03
2022-12-13T15:19:29.565Z,96885.59
2022-12-13T15:22:02.273Z,96887.47
2022-12-13T15:24:33.595Z,96878.13
2022-12-13T15:27:01.600Z,96881.84
2022-12-13T15:29:31.303Z,96887.47
2022-12-13T15:31:58.901Z,96884.25
2022-12-13T15:34:36.496Z,96883.22
2022-12-13T15:37:06.763Z,96888.56
2022-12-13T15:39:40.946Z,96880.78
2022-12-13T15:42:19.623Z,96885.88
2022-12-13T15:44:49.817Z,96885.59
2022-12-13T15:47:28.888Z,96882.94
2022-12-13T15:49:58.849Z,96883.19
2022-12-13T15:52:30.686Z,96884.28
2022-12-13T15:55:00.717Z,96894.44
2022-12-13T15:57:30.258Z,96876.28
2022-12-13T16:00:29.087Z,96891.47
2022-12-13T16:03:08.477Z,96896.22
2022-12-13T16:05:40.313Z,96892.44
2022-12-13T16:08:19.238Z,96889.88
2022-12-13T16:10:49.617Z,96885.75
2022-12-13T16:13:25.838Z,96888.84
2022-12-13T16:15:59.725Z,96890.06
2022-12-13T16:18:31.941Z,96886.00
2022-12-13T16:20:59.714Z,96895.34
2022-12-13T16:23:28.048Z,96890.22
2022-12-13T16:25:56.625Z,96889.19
2022-12-13T16:28:26.002Z,96897.31
2022-12-13T16:31:02.926Z,96893.84
2022-12-13T16:33:30.295Z,96903.31
2022-12-13T16:35:57.756Z,96900.63
2022-12-13T16:38:26.641Z,96897.69
2022-12-13T16:40:59.769Z,96889.69
2022-12-13T16:43:33.756Z,96891.34
2022-12-13T16:47:12.766Z,96870.84
2022-12-13T16:48:52.067Z,96883.72
2022-12-13T16:51:19.250Z,96876.91
2022-12-13T16:53:46.483Z,96883.06
2022-12-13T16:56:15.492Z,96869.97
2022-12-13T16:58:49.457Z,96872.13
2022-12-13T17:01:20.194Z,96871.53
2022-12-13T17:03:47.790Z,96868.59
2022-12-13T17:06:24.394Z,96862.44
2022-12-13T17:08:51.520Z,96858.72
2022-12-13T17:11:20.017Z,96857.91
2022-12-13T17:13:47.214Z,96857.38
2022-12-13T17:16:14.553Z,96869.22
2022-12-13T17:18:42.057Z,96871.91
2022-12-13T17:21:10.244Z,96864.69
2022-12-13T17:23:37.517Z,96865.22
2022-12-13T17:26:05.607Z,96866.34
2022-12-13T17:28:34.154Z,96864.47
2022-12-13T17:31:05.355Z,96850.28
2022-12-13T17:33:32.542Z,96852.94
2022-12-13T17:36:01.475Z,96851.09
2022-12-13T17:38:28.948Z,96846.31
2022-12-13T17:40:56.274Z,96840.47
2022-12-13T17:43:32.966Z,96835.16
2022-12-13T17:46:04.263Z,96835.94
2022-12-13T17:48:39.270Z,96837.31
2022-12-13T17:51:08.590Z,96837.03
2022-12-13T17:53:36.152Z,96838.63
2022-12-13T17:56:05.601Z,96825.13
2022-12-13T17:58:33.229Z,96833.94
2022-12-13T18:01:11.654Z,96835.66
2022-12-13T18:03:39.187Z,96821.53
2022-12-13T18:06:07.086Z,96833.31
2022-12-13T18:08:34.835Z,96829.31
2022-12-13T18:11:31.189Z,96828.00
2022-12-13T18:13:49.743Z,96821.34
2022-12-13T18:16:28.945Z,96827.22
2022-12-13T18:18:59.169Z,96832.84
2022-12-13T18:21:26.997Z,96830.94
2022-12-13T18:23:55.848Z,96830.94
2022-12-13T18:26:24.177Z,96836.91
2022-12-13T18:28:51.651Z,96842.59
2022-12-13T18:31:20.463Z,96831.13
2022-12-13T18:33:49.816Z,96835.47
2022-12-13T18:36:17.887Z,96838.88
2022-12-13T18:38:45.432Z,96836.63
2022-12-13T18:41:14.603Z,96849.28
2022-12-13T18:43:42.623Z,96857.16
2022-12-13T18:46:10.771Z,96850.75
2022-12-13T18:48:38.195Z,96843.72
2022-12-13T18:51:08.431Z,96839.25
2022-12-13T18:53:36.798Z,96844.91
2022-12-13T18:56:05.767Z,96837.69
2022-12-13T18:58:33.868Z,96836.41
2022-12-13T19:01:01.172Z,96822.81
2022-12-13T19:03:28.794Z,96830.88
2022-12-13T19:05:56.905Z,96832.97
2022-12-13T19:08:26.346Z,96833.78
2022-12-13T19:10:53.715Z,96839.72
2022-12-13T19:13:21.417Z,96833.06
2022-12-13T19:15:48.694Z,96840.03
2022-12-13T19:18:15.834Z,96837.91
2022-12-13T19:20:45.618Z,96832.84
2022-12-13T19:23:12.734Z,96838.16
2022-12-13T19:25:41.800Z,96840.03
2022-12-13T19:28:09.701Z,96845.75
2022-12-13T19:30:37.124Z,96844.03
2022-12-13T19:33:04.903Z,96845.09
2022-12-13T19:35:32.073Z,96842.47
2022-12-13T19:37:59.253Z,96838.22
2022-12-13T19:40:26.405Z,96843.53
2022-12-13T19:42:54.970Z,96842.22
2022-12-13T19:45:22.084Z,96827.47
2022-12-13T19:47:49.187Z,96811.09
2022-12-13T19:50:16.585Z,96826.88
2022-12-13T19:52:43.695Z,96822.09
2022-12-13T19:55:10.788Z,96821.31
2022-12-13T19:57:37.893Z,96828.31
2022-12-13T20:00:08.235Z,96826.16
2022-12-13T20:02:35.399Z,96816.81
2022-12-13T20:05:02.635Z,96816.81
2022-12-13T20:07:29.758Z,96808.75
2022-12-13T20:09:56.889Z,96810.69
2022-12-13T20:12:24.228Z,96815.25
2022-12-13T20:14:51.371Z,96806.69
2022-12-13T20:17:19.884Z,96802.38
2022-12-13T20:19:47.020Z,96796.22
2022-12-13T20:22:15.193Z,96792.22
2022-12-13T20:24:42.315Z,96783.16
2022-12-13T20:27:10.027Z,96777.81
2022-12-13T20:29:37.245Z,96789.84
2022-12-13T20:32:04.704Z,96776.16
2022-12-13T20:34:33.264Z,96770.81
2022-12-13T20:37:00.361Z,96758.22
2022-12-13T20:39:27.468Z,96747.75
2022-12-13T20:41:54.614Z,96742.38
2022-12-13T20:44:21.950Z,96739.97
2022-12-13T20:46:49.153Z,96735.13
2022-12-13T20:49:16.342Z,96747.22
2022-12-13T20:51:44.799Z,96735.72
2022-12-13T20:54:11.923Z,96742.41
2022-12-13T20:56:40.434Z,96751.03
2022-12-13T20:59:10.384Z,96741.34
2022-12-13T21:01:38.705Z,96739.22
2022-12-13T21:04:08.592Z,96737.34
2022-12-13T21:06:37.539Z,96742.41
2022-12-13T21:09:06.922Z,96733.06
2022-12-13T21:11:35.416Z,96740.81
2022-12-13T21:14:09.210Z,96738.13
2022-12-13T21:16:41.784Z,96702.94
2022-12-13T21:19:10.099Z,96724.03
2022-12-13T21:21:37.440Z,96717.88
2022-12-13T21:24:07.025Z,96719.19
2022-12-13T21:26:36.153Z,96718.16
2022-12-13T21:29:06.349Z,96716.78
2022-12-13T21:31:34.921Z,96712.25
2022-12-13T21:34:02.446Z,96717.63
2022-12-13T21:36:30.808Z,96709.00
2022-12-13T21:38:59.675Z,96703.91
2022-12-13T21:41:28.876Z,96703.63
2022-12-13T21:43:56.076Z,96691.03
2022-12-13T21:46:31.331Z,96689.44
2022-12-13T21:49:11.850Z,96676.88
2022-12-13T21:51:42.153Z,96685.47
2022-12-13T21:54:13.016Z,96689.50
2022-12-13T21:56:41.425Z,96685.47
2022-12-13T21:59:09.827Z,96673.19
2022-12-13T22:01:42.936Z,96655.53
2022-12-13T22:04:16.315Z,96649.38
2022-12-13T22:06:43.939Z,96624.34
2022-12-13T22:09:11.311Z,96642.16
2022-12-13T22:11:39.050Z,96656.63
2022-12-13T22:14:07.545Z,96653.97
2022-12-13T22:16:34.753Z,96648.59
2022-12-13T22:19:01.890Z,96647.25
2022-12-13T22:21:29.347Z,96640.59
2022-12-13T22:23:56.723Z,96646.22
2022-12-13T22:26:25.122Z,96655.28
2022-12-13T22:28:52.544Z,96653.13
2022-12-13T22:31:25.314Z,96665.66
2022-12-13T22:33:55.932Z,96675.31
2022-12-13T22:36:23.293Z,96682.25
2022-12-13T22:38:50.904Z,96684.13
2022-12-13T22:41:18.210Z,96672.66
2022-12-13T22:43:45.710Z,96665.44
2022-12-13T22:46:18.158Z,96666.25
2022-12-13T22:48:47.148Z,96671.63
2022-12-13T22:51:16.502Z,96671.09
2022-12-13T22:53:45.685Z,96656.94
2022-12-13T22:56:15.022Z,96658.81
2022-12-13T22:58:42.633Z,96641.22
2022-12-13T23:01:11.803Z,96650.00
2022-12-13T23:03:40.295Z,96630.72
2022-12-13T23:06:11.639Z,96643.34
2022-12-13T23:08:43.396Z,96641.72
2022-12-13T23:11:12.311Z,96635.56
2022-12-13T23:13:39.437Z,96641.72
2022-12-13T23:16:07.285Z,96635.56
2022-12-13T23:18:34.406Z,96628.59
2022-12-13T23:21:01.600Z,96635.84
2022-12-13T23:23:30.713Z,96636.09
2022-12-13T23:25:57.988Z,96630.94
2022-12-13T23:28:25.428Z,96618.13
2022-12-13T23:30:52.861Z,96616.50
2022-12-13T23:33:20.030Z,96605.00
2022-12-13T23:35:47.169Z,96605.78
2022-12-13T23:38:14.271Z,96588.69
2022-12-13T23:40:42.755Z,96596.22
2022-12-13T23:43:09.853Z,96603.13
2022-12-13T23:45:36.957Z,96599.16
2022-12-13T23:48:04.445Z,96587.91
2022-12-13T23:50:31.552Z,96586.03
2022-12-13T23:52:58.654Z,96584.72
2022-12-13T23:55:25.799Z,96587.66
2022-12-13T23:57:54.250Z,96566.84
